Time;durP1;ratioP1;P1;durP2;ratioP2;P2;SDS_P1;SDS_P2;PMS_P1;PMS_P2;Temp;Humidity;BMP_temperature;BMP_pressure;BME280_temperature;BME280_humidity;BME280_pressure;Samples;Min_cycle;Max_cycle;Signal;HPM_P1;HPM_P2
2022/11/25 00:01:05;;;;;;;2.90;2.70;;;0.70;99.90;;;;;;5030759;28;20237;-67
2022/11/25 00:03:31;;;;;;;4.50;2.45;;;0.70;99.90;;;;;;5031526;28;20198;-66
2022/11/25 00:06:08;;;;;;;4.65;2.78;;;0.70;99.90;;;;;;5031695;28;20317;-67
2022/11/25 00:08:36;;;;;;;4.43;2.15;;;0.70;99.90;;;;;;5030934;28;20197;-66
2022/11/25 00:11:03;;;;;;;2.25;1.90;;;0.60;99.90;;;;;;5031042;28;20217;-67
2022/11/25 00:13:30;;;;;;;2.72;2.13;;;0.60;99.90;;;;;;5031753;28;20293;-65
2022/11/25 00:16:01;;;;;;;6.07;2.45;;;0.60;99.90;;;;;;5031814;28;20230;-66
2022/11/25 00:18:28;;;;;;;3.50;1.90;;;0.60;99.90;;;;;;5032440;28;20309;-66
2022/11/25 00:20:54;;;;;;;5.45;2.45;;;0.70;99.90;;;;;;5031784;28;20222;-66
2022/11/25 00:23:21;;;;;;;3.08;2.20;;;0.70;99.90;;;;;;5032438;28;20210;-67
2022/11/25 00:25:49;;;;;;;3.58;2.35;;;0.70;99.90;;;;;;5030941;28;20312;-67
2022/11/25 00:28:17;;;;;;;3.65;2.03;;;0.70;99.90;;;;;;5031135;28;20198;-65
2022/11/25 00:30:44;;;;;;;2.30;2.10;;;0.80;99.90;;;;;;5030188;28;20222;-66
2022/11/25 00:33:11;;;;;;;3.13;2.22;;;1.10;99.90;;;;;;5030806;28;20214;-66
2022/11/25 00:35:37;;;;;;;3.05;1.83;;;1.40;99.90;;;;;;5030777;28;20226;-67
2022/11/25 00:38:04;;;;;;;3.38;2.00;;;1.50;99.90;;;;;;5030854;28;20209;-67
2022/11/25 00:40:31;;;;;;;2.53;2.03;;;1.60;99.90;;;;;;5030229;28;20226;-66
2022/11/25 00:45:43;;;;;;;2.70;2.35;;;2.00;99.90;;;;;;5030590;28;20355;-67
2022/11/25 00:48:10;;;;;;;2.25;2.05;;;2.10;99.90;;;;;;5030807;28;20209;-67
2022/11/25 00:50:36;;;;;;;3.83;2.30;;;2.20;99.90;;;;;;5029856;28;20584;-66
2022/11/25 00:53:03;;;;;;;3.42;2.70;;;2.30;99.90;;;;;;5030777;28;20601;-67
2022/11/25 00:56:11;;;;;;;4.57;2.30;;;2.40;99.90;;;;;;5030366;28;20227;-65
2022/11/25 00:58:18;;;;;;;6.75;2.25;;;2.50;99.90;;;;;;5030390;28;20205;-66
2022/11/25 01:00:45;;;;;;;2.50;2.30;;;2.50;99.90;;;;;;5029567;28;20237;-66
2022/11/25 01:03:11;;;;;;;3.97;2.53;;;2.50;99.90;;;;;;5030663;28;20210;-67
2022/11/25 01:05:38;;;;;;;2.58;2.10;;;2.60;99.90;;;;;;5030309;28;20234;-66
2022/11/25 01:08:05;;;;;;;5.53;2.08;;;2.50;99.90;;;;;;5030552;28;20202;-65
2022/11/25 01:10:32;;;;;;;2.65;2.40;;;2.50;99.90;;;;;;5029913;28;20206;-66
2022/11/25 01:12:58;;;;;;;3.53;3.00;;;2.60;99.90;;;;;;5030392;28;20206;-67
2022/11/25 01:15:26;;;;;;;2.83;2.35;;;2.60;99.90;;;;;;5030239;28;20222;-67
2022/11/25 01:17:53;;;;;;;3.15;2.20;;;2.60;99.90;;;;;;5062283;22;20235;-67
2022/11/25 01:20:20;;;;;;;4.35;2.42;;;2.60;99.90;;;;;;5052651;28;20594;-71
2022/11/25 01:22:47;;;;;;;4.95;2.72;;;2.60;99.90;;;;;;5054768;28;20201;-70
2022/11/25 01:25:13;;;;;;;4.43;2.88;;;2.60;99.90;;;;;;5054349;28;20221;-71
2022/11/25 01:27:41;;;;;;;4.05;2.45;;;2.50;99.90;;;;;;5054788;28;20547;-70
2022/11/25 01:30:09;;;;;;;3.95;2.58;;;2.50;99.90;;;;;;5054355;28;20637;-70
2022/11/25 01:32:37;;;;;;;2.45;2.25;;;2.50;99.90;;;;;;5054412;28;20390;-71
2022/11/25 01:35:05;;;;;;;2.20;2.00;;;2.50;99.90;;;;;;5054233;28;20225;-71
2022/11/25 01:37:32;;;;;;;5.25;2.70;;;2.40;99.90;;;;;;5054643;28;20205;-70
2022/11/25 01:39:59;;;;;;;4.07;2.70;;;2.40;99.90;;;;;;5054471;28;20222;-70
2022/11/25 01:42:29;;;;;;;6.75;2.67;;;2.30;99.90;;;;;;5054285;28;20202;-70
2022/11/25 01:45:33;;;;;;;6.05;2.65;;;2.30;99.90;;;;;;5054217;28;20228;-70
2022/11/25 01:48:06;;;;;;;5.80;2.60;;;2.30;99.90;;;;;;5055016;28;20206;-70
2022/11/25 01:50:35;;;;;;;3.25;2.38;;;2.30;99.90;;;;;;5055930;28;20212;-70
2022/11/25 01:53:05;;;;;;;2.30;2.10;;;2.30;99.90;;;;;;5056349;28;20233;-69
2022/11/25 01:55:35;;;;;;;6.40;2.50;;;2.20;99.90;;;;;;5056381;28;20700;-70
2022/11/25 01:58:06;;;;;;;4.88;2.55;;;2.20;99.90;;;;;;5054226;28;20359;-70
2022/11/25 02:00:33;;;;;;;2.33;2.13;;;2.20;99.90;;;;;;5054794;28;20230;-70
2022/11/25 02:03:02;;;;;;;4.28;2.80;;;2.20;99.90;;;;;;5056049;28;20234;-69
2022/11/25 02:05:37;;;;;;;2.63;2.30;;;2.20;99.90;;;;;;5055306;28;20795;-70
2022/11/25 02:08:05;;;;;;;4.13;2.78;;;2.20;99.90;;;;;;5055398;28;20273;-71
2022/11/25 02:10:33;;;;;;;2.70;2.33;;;2.20;99.90;;;;;;5053718;28;20289;-69
2022/11/25 02:13:00;;;;;;;3.58;2.90;;;2.20;99.90;;;;;;5053563;28;20225;-69
2022/11/25 02:15:29;;;;;;;3.97;2.70;;;2.20;99.90;;;;;;5053764;28;20308;-70
2022/11/25 02:17:56;;;;;;;2.63;2.38;;;2.10;99.90;;;;;;5053923;28;20304;-69
2022/11/25 02:20:25;;;;;;;3.42;2.75;;;2.10;99.90;;;;;;5059482;28;20252;-68
2022/11/25 02:23:02;;;;;;;5.00;2.65;;;2.10;99.90;;;;;;5056084;28;20626;-69
2022/11/25 02:25:33;;;;;;;3.00;2.15;;;2.10;99.90;;;;;;5053494;28;20667;-69
2022/11/25 02:28:04;;;;;;;2.78;2.58;;;2.10;99.90;;;;;;5053005;28;20289;-69
2022/11/25 02:30:32;;;;;;;3.05;2.00;;;2.00;99.90;;;;;;5052135;28;20553;-70
2022/11/25 02:33:00;;;;;;;2.80;2.28;;;2.10;99.90;;;;;;5052967;28;20204;-69
2022/11/25 02:35:33;;;;;;;2.72;2.30;;;2.10;99.90;;;;;;5053180;28;20217;-69
2022/11/25 02:38:05;;;;;;;2.65;2.45;;;2.00;99.90;;;;;;5052850;28;20205;-69
2022/11/25 02:40:36;;;;;;;3.35;2.60;;;2.00;99.90;;;;;;5052877;28;20228;-69
2022/11/25 02:43:03;;;;;;;4.20;2.10;;;1.90;99.90;;;;;;5052719;28;20213;-69
2022/11/25 02:45:39;;;;;;;3.35;2.42;;;1.80;99.90;;;;;;5053036;28;20602;-70
2022/11/25 02:48:06;;;;;;;4.60;2.47;;;1.80;99.90;;;;;;5052883;28;21040;-69
2022/11/25 02:50:33;;;;;;;3.03;2.00;;;1.80;99.90;;;;;;5032438;28;20327;-70
2022/11/25 02:53:00;;;;;;;2.55;2.35;;;1.80;99.90;;;;;;5032993;28;20210;-69
2022/11/25 02:55:27;;;;;;;6.88;3.83;;;1.80;99.90;;;;;;5032841;28;20222;-70
2022/11/25 02:57:55;;;;;;;2.90;2.60;;;1.70;99.90;;;;;;5033496;28;20207;-69
2022/11/25 03:00:22;;;;;;;4.25;2.33;;;1.70;99.90;;;;;;5032836;28;20248;-69
2022/11/25 03:02:52;;;;;;;3.47;2.65;;;1.60;99.90;;;;;;5033240;28;20229;-69
2022/11/25 03:05:18;;;;;;;4.20;2.45;;;1.60;99.90;;;;;;5033249;28;20233;-69
2022/11/25 03:07:45;;;;;;;2.72;2.53;;;1.70;99.90;;;;;;5032973;28;20202;-70
2022/11/25 03:10:12;;;;;;;5.13;2.85;;;1.70;99.90;;;;;;5032453;28;20736;-70
2022/11/25 03:12:39;;;;;;;4.35;2.65;;;1.70;99.90;;;;;;5032418;28;20213;-69
2022/11/25 03:15:08;;;;;;;3.72;2.50;;;1.70;99.90;;;;;;5032926;28;20223;-69
2022/11/25 03:17:35;;;;;;;2.88;2.33;;;1.70;99.90;;;;;;5032786;28;20464;-69
2022/11/25 03:20:02;;;;;;;2.83;2.63;;;1.70;99.90;;;;;;5032678;28;20205;-69
2022/11/25 03:22:28;;;;;;;2.42;2.08;;;1.70;99.90;;;;;;5032407;28;20226;-70
2022/11/25 03:24:55;;;;;;;2.85;2.40;;;1.60;99.90;;;;;;5032264;28;20763;-70
2022/11/25 03:27:22;;;;;;;4.32;2.42;;;1.60;99.90;;;;;;5032941;28;20203;-70
2022/11/25 03:29:49;;;;;;;4.32;2.42;;;1.70;99.90;;;;;;5032291;28;20202;-70
2022/11/25 03:32:17;;;;;;;4.55;2.75;;;1.70;99.90;;;;;;5032333;28;20640;-70
2022/11/25 03:34:44;;;;;;;3.60;2.50;;;1.70;99.90;;;;;;5033298;28;20230;-70
2022/11/25 03:37:11;;;;;;;2.20;1.85;;;1.80;99.90;;;;;;5032586;28;20230;-69
2022/11/25 03:39:37;;;;;;;3.05;2.70;;;1.80;99.90;;;;;;5032299;28;20202;-70
2022/11/25 03:42:04;;;;;;;6.70;2.22;;;1.80;99.90;;;;;;5030313;28;20565;-70
2022/11/25 03:44:31;;;;;;;2.35;2.15;;;1.70;99.90;;;;;;5032228;28;20595;-70
2022/11/25 03:46:58;;;;;;;2.85;2.08;;;1.70;99.90;;;;;;5032432;28;20209;-70
2022/11/25 03:49:26;;;;;;;4.93;3.05;;;1.70;99.90;;;;;;5031828;28;20731;-69
2022/11/25 03:51:53;;;;;;;3.53;2.00;;;1.70;99.90;;;;;;5030965;28;20205;-70
2022/11/25 03:54:19;;;;;;;2.55;2.20;;;1.70;99.90;;;;;;5031807;28;20238;-69
2022/11/25 03:56:46;;;;;;;3.03;2.53;;;1.60;99.90;;;;;;5032165;28;20692;-70
2022/11/25 03:59:13;;;;;;;4.60;2.20;;;1.60;99.90;;;;;;5032819;28;20209;-70
2022/11/25 04:01:40;;;;;;;2.50;2.10;;;1.60;99.90;;;;;;5033806;28;20252;-70
2022/11/25 04:04:07;;;;;;;3.55;2.00;;;1.60;99.90;;;;;;5033475;28;20277;-70
2022/11/25 04:06:38;;;;;;;3.92;2.38;;;1.60;99.90;;;;;;5033960;28;20228;-69
2022/11/25 04:09:04;;;;;;;2.42;2.22;;;1.60;99.90;;;;;;5033306;28;20199;-69
2022/11/25 04:14:12;;;;;;;3.55;2.38;;;1.60;99.90;;;;;;5033185;28;20216;-70
2022/11/25 04:16:38;;;;;;;4.68;2.15;;;1.50;99.90;;;;;;5033399;28;20217;-70
2022/11/25 04:19:05;;;;;;;4.47;3.30;;;1.50;99.90;;;;;;5033425;28;20563;-70
2022/11/25 04:21:32;;;;;;;2.67;2.45;;;1.50;99.90;;;;;;5032495;28;20221;-69
2022/11/25 04:24:00;;;;;;;2.95;2.65;;;1.50;99.90;;;;;;5032858;28;20206;-70
2022/11/25 04:26:27;;;;;;;2.75;2.33;;;1.50;99.90;;;;;;5032590;28;20293;-70
2022/11/25 04:28:54;;;;;;;6.85;3.08;;;1.40;99.90;;;;;;5032035;28;20669;-69
2022/11/25 04:31:21;;;;;;;2.65;2.20;;;1.40;99.90;;;;;;5031060;28;20198;-69
2022/11/25 04:33:47;;;;;;;3.67;2.67;;;1.40;99.90;;;;;;5032811;28;20206;-69
2022/11/25 04:36:14;;;;;;;3.17;2.88;;;1.40;99.90;;;;;;5032601;28;20213;-68
2022/11/25 04:38:41;;;;;;;3.28;2.97;;;1.40;99.90;;;;;;5032799;28;20198;-68
2022/11/25 04:41:09;;;;;;;5.68;2.70;;;1.30;99.90;;;;;;5030081;28;20233;-69
2022/11/25 04:43:36;;;;;;;2.70;2.35;;;1.40;99.90;;;;;;5030768;28;20202;-69
2022/11/25 04:46:03;;;;;;;4.25;2.60;;;1.40;99.90;;;;;;5032393;28;20218;-69
2022/11/25 04:48:30;;;;;;;4.05;3.10;;;1.40;99.90;;;;;;5032441;28;20206;-69
2022/11/25 04:50:57;;;;;;;3.95;2.60;;;1.40;99.90;;;;;;5032230;28;20202;-70
2022/11/25 04:53:24;;;;;;;3.00;2.60;;;1.40;99.90;;;;;;5030951;28;20213;-70
2022/11/25 04:55:50;;;;;;;4.82;2.28;;;1.30;99.90;;;;;;5031423;28;20237;-70
2022/11/25 04:59:38;;;;;;;2.83;2.63;;;1.30;99.90;;;;;;5031260;28;20202;-70
2022/11/25 05:01:04;;;;;;;4.00;2.70;;;1.30;99.90;;;;;;5030298;28;20230;-70
2022/11/25 05:03:31;;;;;;;5.50;2.90;;;1.20;99.90;;;;;;5032001;28;20198;-71
2022/11/25 05:05:58;;;;;;;3.80;3.10;;;1.20;99.90;;;;;;5031011;28;20222;-70
2022/11/25 05:08:24;;;;;;;8.63;3.42;;;1.20;99.90;;;;;;5031192;28;20213;-68
2022/11/25 05:10:51;;;;;;;4.07;3.40;;;1.20;99.90;;;;;;5030171;28;20557;-69
2022/11/25 05:13:19;;;;;;;3.35;2.60;;;1.10;99.90;;;;;;5023749;28;20195;-69
2022/11/25 05:15:46;;;;;;;4.22;3.15;;;1.10;99.90;;;;;;5029892;28;20237;-70
2022/11/25 05:18:13;;;;;;;3.92;3.03;;;1.10;99.90;;;;;;5029862;28;20691;-68
2022/11/25 05:20:39;;;;;;;4.50;3.35;;;1.10;99.90;;;;;;5029961;28;20691;-68
2022/11/25 05:23:06;;;;;;;3.30;2.90;;;1.10;99.90;;;;;;5030683;28;20202;-68
2022/11/25 05:25:33;;;;;;;3.65;2.85;;;1.10;99.90;;;;;;5031103;28;20226;-69
2022/11/25 05:28:00;;;;;;;2.83;2.55;;;1.00;99.90;;;;;;5030834;28;20203;-69
2022/11/25 05:30:28;;;;;;;3.28;2.70;;;1.00;99.90;;;;;;5030426;28;20202;-68
2022/11/25 05:32:55;;;;;;;4.60;4.10;;;0.90;99.90;;;;;;5029109;28;20464;-68
2022/11/25 05:35:22;;;;;;;8.20;3.70;;;0.90;99.90;;;;;;5030260;28;21015;-68
2022/11/25 05:37:48;;;;;;;6.35;3.95;;;0.90;99.90;;;;;;5030062;28;20198;-68
2022/11/25 05:40:15;;;;;;;4.70;2.90;;;0.80;99.90;;;;;;5029961;28;20202;-69
2022/11/25 05:42:42;;;;;;;2.90;2.60;;;0.80;99.90;;;;;;5030158;28;20238;-68
2022/11/25 05:45:10;;;;;;;3.80;2.95;;;0.80;99.90;;;;;;5030037;28;20647;-68
2022/11/25 05:47:38;;;;;;;5.03;2.95;;;0.80;99.90;;;;;;5030298;28;20264;-68
2022/11/25 05:50:06;;;;;;;5.40;2.80;;;0.80;99.90;;;;;;5029816;28;20203;-69
2022/11/25 05:52:33;;;;;;;5.20;3.13;;;0.80;99.90;;;;;;5029690;28;20198;-68
2022/11/25 05:54:59;;;;;;;3.35;3.05;;;0.70;99.90;;;;;;5029810;28;20277;-68
2022/11/25 05:57:27;;;;;;;3.33;3.03;;;0.70;99.90;;;;;;5030216;28;20204;-69
2022/11/25 05:59:54;;;;;;;4.32;3.28;;;0.70;99.90;;;;;;5029614;28;20202;-68
2022/11/25 06:02:20;;;;;;;3.10;2.80;;;0.60;99.90;;;;;;5029652;28;20235;-68
2022/11/25 06:04:49;;;;;;;4.15;3.03;;;0.60;99.90;;;;;;5029722;28;20313;-69
2022/11/25 06:07:15;;;;;;;4.40;3.53;;;0.60;99.90;;;;;;5033140;28;20210;-68
2022/11/25 06:09:42;;;;;;;4.95;3.17;;;0.60;99.90;;;;;;5033503;28;20225;-68
2022/11/25 06:12:09;;;;;;;5.95;3.55;;;0.60;99.90;;;;;;5032753;28;20194;-68
2022/11/25 06:14:35;;;;;;;4.22;3.83;;;0.60;99.90;;;;;;5033393;28;20223;-68
2022/11/25 06:17:03;;;;;;;4.78;3.53;;;0.60;99.90;;;;;;5033718;28;20214;-68
2022/11/25 06:19:30;;;;;;;4.05;2.92;;;0.60;99.90;;;;;;5033411;28;20248;-68
2022/11/25 06:21:58;;;;;;;3.28;2.55;;;0.50;99.90;;;;;;5032427;28;20222;-68
2022/11/25 06:24:24;;;;;;;4.53;2.60;;;0.50;99.90;;;;;;5033384;28;20230;-69
2022/11/25 06:26:51;;;;;;;3.03;2.45;;;0.50;99.90;;;;;;5033128;28;20208;-68
2022/11/25 06:29:18;;;;;;;4.20;3.17;;;0.50;99.90;;;;;;5033045;28;20206;-69
2022/11/25 06:31:45;;;;;;;3.05;2.75;;;0.50;99.90;;;;;;5032748;28;20202;-68
2022/11/25 06:34:11;;;;;;;2.80;2.28;;;0.50;99.90;;;;;;5032877;28;20226;-68
2022/11/25 06:36:38;;;;;;;3.00;2.25;;;0.50;99.90;;;;;;5032984;28;20222;-68
2022/11/25 06:39:06;;;;;;;3.67;2.83;;;0.40;99.90;;;;;;5032592;28;20198;-68
2022/11/25 06:41:33;;;;;;;5.35;3.05;;;0.40;99.90;;;;;;5032504;28;20223;-68
2022/11/25 06:44:00;;;;;;;4.72;2.92;;;0.40;99.90;;;;;;5032697;28;20203;-68
2022/11/25 06:46:26;;;;;;;3.83;3.20;;;0.40;99.90;;;;;;5033430;28;20198;-68
2022/11/25 06:48:53;;;;;;;3.20;2.63;;;0.40;99.90;;;;;;5032595;28;20697;-68
2022/11/25 06:51:20;;;;;;;4.05;2.75;;;0.40;99.90;;;;;;5032223;28;20234;-68
2022/11/25 06:53:47;;;;;;;4.40;3.10;;;0.40;99.90;;;;;;5032436;28;20289;-68
2022/11/25 06:56:18;;;;;;;3.08;2.78;;;0.50;99.90;;;;;;5032463;28;20207;-68
2022/11/25 06:58:46;;;;;;;3.75;3.13;;;0.50;99.90;;;;;;5032333;28;20206;-68
2022/11/25 07:01:15;;;;;;;3.90;3.25;;;0.60;99.90;;;;;;5032029;28;20218;-68
2022/11/25 07:03:43;;;;;;;4.25;3.08;;;0.80;99.90;;;;;;5032492;28;20209;-68
2022/11/25 07:06:11;;;;;;;4.18;2.92;;;1.00;99.90;;;;;;5032477;28;20221;-69
2022/11/25 07:08:38;;;;;;;4.03;2.72;;;1.10;99.90;;;;;;5035347;28;20202;-68
2022/11/25 07:11:07;;;;;;;4.15;3.08;;;1.20;99.90;;;;;;5030312;28;20679;-69
2022/11/25 07:13:35;;;;;;;5.25;3.00;;;1.30;99.90;;;;;;5032189;28;20202;-69
2022/11/25 07:16:03;;;;;;;4.15;2.25;;;1.40;99.90;;;;;;5032130;28;20594;-68
2022/11/25 07:18:31;;;;;;;7.35;3.50;;;1.60;99.90;;;;;;5031511;28;20198;-70
2022/11/25 07:21:03;;;;;;;9.68;3.35;;;1.70;99.90;;;;;;5030888;28;20203;-70
2022/11/25 07:23:30;;;;;;;3.17;2.40;;;1.80;99.90;;;;;;5031699;28;20222;-68
2022/11/25 07:26:05;;;;;;;2.83;2.60;;;1.90;99.90;;;;;;5031465;28;20275;-68
2022/11/25 07:28:32;;;;;;;3.78;3.35;;;2.00;99.90;;;;;;5031893;28;20206;-69
2022/11/25 07:31:07;;;;;;;3.72;3.15;;;2.10;99.90;;;;;;5030882;28;20202;-68
2022/11/25 07:33:34;;;;;;;7.20;3.65;;;2.20;99.90;;;;;;5031848;28;20641;-69
2022/11/25 07:36:02;;;;;;;3.63;2.97;;;2.30;99.90;;;;;;5030841;28;20237;-69
2022/11/25 07:38:29;;;;;;;4.82;3.05;;;2.40;99.90;;;;;;5031442;28;20198;-70
2022/11/25 07:40:56;;;;;;;3.40;3.08;;;2.50;99.90;;;;;;5031079;28;20234;-69
2022/11/25 07:43:24;;;;;;;4.10;3.22;;;2.60;99.90;;;;;;5031692;28;20233;-70
2022/11/25 07:45:51;;;;;;;6.40;3.17;;;2.70;99.90;;;;;;5031254;28;20597;-70
2022/11/25 07:48:19;;;;;;;5.60;3.22;;;2.70;99.90;;;;;;5031226;28;20198;-70
2022/11/25 07:50:48;;;;;;;4.97;2.50;;;2.90;99.90;;;;;;5030842;28;20202;-70
2022/11/25 07:53:15;;;;;;;2.47;1.67;;;3.00;99.90;;;;;;5031428;28;20336;-69
2022/11/25 07:55:42;;;;;;;2.60;2.22;;;3.20;99.90;;;;;;5031250;28;20226;-70
2022/11/25 07:58:09;;;;;;;1.50;1.40;;;3.40;99.90;;;;;;5031289;28;20213;-69
2022/11/25 08:00:35;;;;;;;2.15;1.95;;;3.60;99.90;;;;;;5030116;28;20217;-70
2022/11/25 08:03:02;;;;;;;4.30;1.63;;;3.80;99.90;;;;;;5031030;28;20606;-70
2022/11/25 08:05:32;;;;;;;2.25;1.40;;;3.90;99.90;;;;;;5031128;28;20233;-69
2022/11/25 08:07:59;;;;;;;4.63;2.22;;;4.10;99.90;;;;;;5030650;28;20211;-69
2022/11/25 08:10:26;;;;;;;1.73;1.63;;;4.20;99.90;;;;;;5030766;28;20209;-69
2022/11/25 08:12:52;;;;;;;1.88;1.45;;;4.40;99.90;;;;;;5030137;28;20190;-70
2022/11/25 08:15:19;;;;;;;2.47;1.80;;;4.40;99.90;;;;;;5031021;28;20732;-70
2022/11/25 08:17:46;;;;;;;5.45;2.15;;;4.50;99.90;;;;;;5030699;28;20229;-69
2022/11/25 08:20:13;;;;;;;4.25;2.05;;;4.60;99.90;;;;;;5030614;28;20225;-68
2022/11/25 08:22:41;;;;;;;5.28;2.25;;;4.60;99.90;;;;;;5030889;28;20226;-69
2022/11/25 08:25:08;;;;;;;5.40;2.45;;;4.70;99.90;;;;;;5030185;28;20253;-70
2022/11/25 08:27:37;;;;;;;2.70;1.67;;;4.70;99.90;;;;;;5031111;28;20229;-70
2022/11/25 08:30:05;;;;;;;2.65;1.52;;;4.80;99.90;;;;;;5029782;28;20202;-69
2022/11/25 08:32:31;;;;;;;3.78;2.88;;;5.00;99.90;;;;;;5030093;28;20579;-70
2022/11/25 08:34:58;;;;;;;2.55;2.22;;;5.10;99.90;;;;;;5030544;28;20219;-69
2022/11/25 08:37:25;;;;;;;2.10;1.90;;;5.40;99.90;;;;;;5030205;28;20697;-69
2022/11/25 08:39:53;;;;;;;3.72;2.10;;;5.60;99.90;;;;;;5029958;28;20251;-69
2022/11/25 08:42:20;;;;;;;7.43;2.20;;;5.80;99.90;;;;;;5030122;28;20597;-69
2022/11/25 08:44:51;;;;;;;2.53;2.03;;;5.80;99.90;;;;;;5030337;28;20223;-69
2022/11/25 08:47:18;;;;;;;1.75;1.65;;;5.80;99.90;;;;;;5030307;28;20206;-69
2022/11/25 08:49:45;;;;;;;1.50;1.40;;;5.80;99.90;;;;;;5028623;28;20206;-69
2022/11/25 08:52:11;;;;;;;3.47;2.00;;;5.90;99.90;;;;;;5030174;28;20207;-69
2022/11/25 08:54:38;;;;;;;3.05;1.75;;;6.00;99.90;;;;;;5030065;28;20223;-68
2022/11/25 08:57:06;;;;;;;3.45;1.70;;;6.10;99.90;;;;;;5030402;28;20207;-68
2022/11/25 08:59:33;;;;;;;2.55;1.95;;;6.20;99.90;;;;;;5030207;28;20214;-68
2022/11/25 09:02:00;;;;;;;2.88;1.85;;;6.40;99.90;;;;;;5028755;28;20226;-68
2022/11/25 09:04:27;;;;;;;4.15;1.95;;;6.80;99.90;;;;;;5030526;28;20222;-67
2022/11/25 09:06:54;;;;;;;4.53;1.75;;;7.70;99.90;;;;;;5029990;28;20202;-68
2022/11/25 09:09:20;;;;;;;8.68;2.25;;;8.90;99.90;;;;;;5030302;28;20206;-68
2022/11/25 09:11:47;;;;;;;3.60;2.33;;;9.70;99.90;;;;;;5029319;28;20203;-70
2022/11/25 09:14:15;;;;;;;2.83;2.10;;;10.10;99.90;;;;;;5122872;22;20235;-71
2022/11/25 09:16:42;;;;;;;3.25;1.92;;;10.20;99.90;;;;;;5050044;28;20205;-70
2022/11/25 09:19:09;;;;;;;2.47;2.28;;;9.90;99.90;;;;;;5050433;28;20212;-72
2022/11/25 09:21:36;;;;;;;7.75;2.78;;;9.30;99.90;;;;;;5050919;28;20234;-71
2022/11/25 09:24:02;;;;;;;2.53;1.85;;;8.80;99.90;;;;;;5049730;28;20220;-71
2022/11/25 09:26:31;;;;;;;2.50;2.10;;;8.50;99.90;;;;;;5050273;28;20214;-71
2022/11/25 09:28:58;;;;;;;1.90;1.80;;;8.20;99.90;;;;;;5050103;28;20199;-71
2022/11/25 09:31:26;;;;;;;2.78;1.83;;;8.00;99.90;;;;;;5049393;28;20236;-71
2022/11/25 09:33:53;;;;;;;4.65;2.65;;;8.00;99.90;;;;;;5050047;28;20207;-71
2022/11/25 09:36:22;;;;;;;3.70;1.70;;;8.20;99.90;;;;;;5049749;28;20196;-70
2022/11/25 09:38:49;;;;;;;2.50;1.88;;;8.40;99.90;;;;;;5050168;28;20206;-71
2022/11/25 09:47:26;;;;;;;3.67;1.92;;;8.20;99.90;;;;;;5045706;28;20623;-71
2022/11/25 09:50:10;;;;;;;3.78;2.30;;;8.10;99.90;;;;;;5034016;28;20229;-70
2022/11/25 09:52:45;;;;;;;2.85;1.60;;;8.00;99.90;;;;;;5033278;28;20197;-71
2022/11/25 09:55:17;;;;;;;6.72;2.05;;;7.90;99.90;;;;;;5033958;28;20221;-70
2022/11/25 09:57:53;;;;;;;1.90;1.70;;;7.80;99.90;;;;;;5033671;28;20202;-71
2022/11/25 10:00:21;;;;;;;2.72;1.90;;;7.90;99.90;;;;;;5033383;28;20213;-71
2022/11/25 10:03:00;;;;;;;4.38;1.70;;;7.90;99.90;;;;;;5033428;28;20321;-70
2022/11/25 10:05:32;;;;;;;3.38;2.15;;;8.00;99.90;;;;;;5027743;28;20221;-70
2022/11/25 10:08:03;;;;;;;4.35;2.30;;;8.00;99.90;;;;;;5013779;28;20683;-72
2022/11/25 10:10:34;;;;;;;2.63;2.00;;;8.10;99.90;;;;;;5052788;28;20202;-69
2022/11/25 10:13:00;;;;;;;2.45;2.10;;;8.10;99.90;;;;;;5053333;28;20201;-70
2022/11/25 10:15:33;;;;;;;2.88;2.42;;;8.40;99.90;;;;;;5053135;28;20247;-71
2022/11/25 10:18:06;;;;;;;3.38;2.30;;;8.70;99.90;;;;;;5053231;28;20573;-71
2022/11/25 10:20:36;;;;;;;3.20;2.20;;;9.50;99.90;;;;;;5052151;28;20197;-71
2022/11/25 10:23:08;;;;;;;2.78;2.05;;;10.20;99.90;;;;;;5052695;28;20244;-71
2022/11/25 10:25:38;;;;;;;2.58;1.95;;;10.30;99.90;;;;;;5052893;28;20589;-70
2022/11/25 10:28:21;;;;;;;3.05;1.92;;;11.40;99.90;;;;;;5053036;28;20209;-70
2022/11/25 10:30:54;;;;;;;1.95;1.73;;;12.30;99.90;;;;;;5051762;28;20213;-71
2022/11/25 10:33:25;;;;;;;2.25;2.05;;;12.30;99.90;;;;;;5042303;28;20218;-71
2022/11/25 10:35:56;;;;;;;2.67;1.70;;;12.30;99.90;;;;;;5041249;28;20222;-70
2022/11/25 10:38:27;;;;;;;2.25;1.95;;;12.00;99.90;;;;;;5053222;28;20201;-71
2022/11/25 10:40:55;;;;;;;6.97;1.90;;;11.80;99.90;;;;;;5041043;28;20202;-71
2022/11/25 10:43:22;;;;;;;2.28;1.90;;;11.70;99.90;;;;;;5033105;28;20705;-71
2022/11/25 10:45:55;;;;;;;3.00;1.52;;;11.60;99.90;;;;;;5032496;28;20233;-71
2022/11/25 10:48:40;;;;;;;1.98;1.60;;;11.50;99.90;;;;;;5044032;28;20201;-71
2022/11/25 10:51:20;;;;;;;2.45;1.60;;;11.10;99.90;;;;;;5052542;28;20296;-70
2022/11/25 10:54:08;;;;;;;1.52;1.30;;;10.70;99.90;;;;;;5052634;28;20200;-71
2022/11/25 10:56:43;;;;;;;3.17;1.77;;;10.50;99.90;;;;;;5052627;28;20205;-71
2022/11/25 10:59:15;;;;;;;4.90;1.70;;;10.40;99.90;;;;;;5052984;28;20227;-71
2022/11/25 11:01:42;;;;;;;1.63;1.10;;;10.20;99.90;;;;;;5052874;28;20297;-71
2022/11/25 11:04:17;;;;;;;3.10;1.83;;;10.00;99.90;;;;;;5052998;28;20226;-71
2022/11/25 11:06:46;;;;;;;1.75;1.33;;;9.80;99.90;;;;;;5053124;28;20205;-71
2022/11/25 11:09:32;;;;;;;2.33;1.95;;;9.70;99.90;;;;;;5052823;28;20228;-71
2022/11/25 11:12:13;;;;;;;2.45;1.45;;;9.60;99.90;;;;;;5052710;28;20208;-71
2022/11/25 11:14:40;;;;;;;3.05;1.75;;;9.60;99.90;;;;;;5052227;28;20225;-71
2022/11/25 11:17:24;;;;;;;1.90;1.40;;;9.60;99.90;;;;;;5052419;28;20212;-70
2022/11/25 11:20:04;;;;;;;1.33;1.08;;;9.50;99.90;;;;;;5052571;28;20202;-70
2022/11/25 11:22:33;;;;;;;2.33;1.73;;;9.30;99.90;;;;;;5051370;28;20204;-70
2022/11/25 11:25:07;;;;;;;6.57;2.10;;;9.20;99.90;;;;;;5052027;28;20221;-71
2022/11/25 11:27:37;;;;;;;5.32;1.40;;;9.10;99.90;;;;;;5052304;28;20672;-71
2022/11/25 11:30:14;;;;;;;1.80;1.70;;;9.00;99.90;;;;;;5051996;28;20213;-71
2022/11/25 11:32:44;;;;;;;3.28;1.70;;;8.90;99.90;;;;;;5051536;28;20201;-71
2022/11/25 11:35:20;;;;;;;2.40;1.42;;;8.90;99.90;;;;;;5052064;28;20225;-71
2022/11/25 11:37:52;;;;;;;4.10;2.10;;;8.80;99.90;;;;;;5052232;28;20209;-72
2022/11/25 11:40:36;;;;;;;1.75;1.20;;;8.80;99.90;;;;;;5051601;28;20205;-71
2022/11/25 11:43:34;;;;;;;2.67;1.90;;;8.80;99.90;;;;;;5052055;28;20663;-72
2022/11/25 11:46:14;;;;;;;2.33;1.60;;;8.80;99.90;;;;;;5048928;28;20598;-71
2022/11/25 11:48:51;;;;;;;2.10;1.55;;;8.80;99.90;;;;;;5051630;28;20667;-71
2022/11/25 11:51:29;;;;;;;6.90;1.90;;;8.80;99.90;;;;;;5051736;28;20211;-71
2022/11/25 11:54:05;;;;;;;2.45;1.58;;;8.80;99.90;;;;;;5051389;28;20207;-71
2022/11/25 11:56:37;;;;;;;3.70;2.13;;;8.80;99.90;;;;;;5052088;28;20702;-73
2022/11/25 11:59:29;;;;;;;3.10;1.80;;;8.70;99.90;;;;;;5051367;28;20254;-72
2022/11/25 12:02:12;;;;;;;2.28;1.60;;;8.80;99.90;;;;;;5050791;28;20238;-70
2022/11/25 12:04:43;;;;;;;5.40;1.77;;;8.80;99.90;;;;;;5050268;28;20229;-71
2022/11/25 12:07:18;;;;;;;2.17;1.65;;;8.80;99.90;;;;;;5051157;28;20700;-71
2022/11/25 12:09:50;;;;;;;2.00;1.80;;;8.80;99.90;;;;;;5051211;28;20205;-71
2022/11/25 12:12:19;;;;;;;1.92;1.48;;;8.80;99.90;;;;;;5050805;28;20596;-71
2022/11/25 12:14:49;;;;;;;2.13;1.70;;;8.80;99.90;;;;;;5050831;28;20782;-71
2022/11/25 12:17:20;;;;;;;4.53;1.77;;;8.80;99.90;;;;;;5051340;28;20205;-71
2022/11/25 12:19:55;;;;;;;3.50;1.95;;;8.80;99.90;;;;;;5027977;28;20251;-71
2022/11/25 12:22:27;;;;;;;3.28;1.77;;;8.90;99.90;;;;;;5028885;28;20219;-71
2022/11/25 12:25:03;;;;;;;2.90;2.30;;;8.90;99.90;;;;;;5030982;28;20230;-71
2022/11/25 12:27:36;;;;;;;6.10;2.40;;;8.90;99.90;;;;;;5030599;28;20205;-71
2022/11/25 12:30:07;;;;;;;1.90;1.80;;;9.00;99.90;;;;;;5031420;28;20202;-71
2022/11/25 12:32:46;;;;;;;8.05;2.40;;;9.00;99.90;;;;;;5031173;28;20206;-72
2022/11/25 12:35:28;;;;;;;1.60;1.50;;;9.10;99.90;;;;;;5030990;28;20224;-71
2022/11/25 12:38:03;;;;;;;5.00;1.90;;;9.10;99.90;;;;;;5031260;28;20209;-71
2022/11/25 12:40:35;;;;;;;8.25;2.10;;;9.10;99.90;;;;;;5029848;28;20205;-71
2022/11/25 12:43:16;;;;;;;3.97;2.15;;;9.10;99.90;;;;;;5031044;28;20619;-71
2022/11/25 12:45:48;;;;;;;2.80;2.13;;;9.10;99.90;;;;;;5030530;28;20592;-72
2022/11/25 12:48:15;;;;;;;5.30;2.10;;;9.10;99.90;;;;;;5030404;28;20209;-71
2022/11/25 12:50:56;;;;;;;4.43;1.77;;;9.10;99.90;;;;;;5029546;28;20764;-71
2022/11/25 12:53:34;;;;;;;2.30;1.83;;;9.10;99.90;;;;;;5030766;28;20206;-71
2022/11/25 12:56:04;;;;;;;3.08;2.30;;;9.00;99.90;;;;;;5030660;28;20228;-72
2022/11/25 12:58:51;;;;;;;2.75;2.08;;;9.10;99.90;;;;;;5030222;28;20231;-70
2022/11/25 13:01:48;;;;;;;5.43;2.00;;;9.10;99.90;;;;;;5030134;28;20299;-71
2022/11/25 13:04:44;;;;;;;3.83;2.30;;;9.10;99.90;;;;;;5029674;28;20250;-72
2022/11/25 13:07:24;;;;;;;5.72;2.05;;;9.10;99.90;;;;;;5027470;28;20216;-71
2022/11/25 13:10:28;;;;;;;2.75;1.92;;;9.10;99.90;;;;;;5029949;28;20205;-72
2022/11/25 13:13:18;;;;;;;5.25;2.35;;;9.10;99.90;;;;;;5030350;28;20209;-71
2022/11/25 13:15:46;;;;;;;6.30;3.30;;;9.00;99.90;;;;;;5033047;28;20232;-71
2022/11/25 13:18:16;;;;;;;4.30;2.97;;;9.00;99.90;;;;;;5034927;28;20202;-71
2022/11/25 13:20:46;;;;;;;7.28;2.80;;;8.90;99.90;;;;;;5033700;28;20224;-71